CheckWX is a tool to help pilots better visualize weather data.  It is not intended as a substitute for an official pre-flight weather briefing.

14:13:39 UTC

KCXW METAR
Cantrell Field Airport
Conway, Arkansas, USA
Current

19 mins ago

KCXW 221355Z AUTO 20009KT 10SM CLR 19/13 A3011 RMK A01
Observed
Apr-22 @ 13:55 UTC
Wind
  • 200° at 9 KTS
Visibility
10 SM
Flight Rules
VFR
Cloud Levels
  • Clear skies
Temperature
19°C / 66°F
Dewpoint
13°C / 55°F
Humidity
68%
Altimeter
30.11" Hg
Pressure
1019.62 hPa
Previous

39 mins ago

KCXW 221335Z AUTO 17008KT 10SM CLR 18/13 A3011 RMK A01
Observed
Apr-22 @ 13:35 UTC
Wind
  • 170° at 8 KTS
Visibility
10 SM
Flight Rules
VFR
Cloud Levels
  • Clear skies
Temperature
18°C / 64°F
Dewpoint
13°C / 55°F
Humidity
73%
Altimeter
30.11" Hg
Pressure
1019.62 hPa
Previous

59 mins ago

KCXW 221315Z AUTO 16007KT 10SM CLR 17/13 A3010 RMK A01
Observed
Apr-22 @ 13:15 UTC
Wind
  • 160° at 7 KTS
Visibility
10 SM
Flight Rules
VFR
Cloud Levels
  • Clear skies
Temperature
17°C / 63°F
Dewpoint
13°C / 55°F
Humidity
77%
Altimeter
30.1" Hg
Pressure
1019.32 hPa